Time;durP1;ratioP1;P1;durP2;ratioP2;P2;SDS_P1;SDS_P2;PMS_P1;PMS_P2;Temp;Humidity;BMP_temperature;BMP_pressure;BME280_temperature;BME280_humidity;BME280_pressure;Samples;Min_cycle;Max_cycle;Signal;HPM_P1;HPM_P2
2023/05/03 00:00:11;;;;;;;;;;;23.00;43.20;;;;;;6402325;27;20103;-54
2023/05/03 00:03:13;;;;;;;0.55;0.50;;;23.10;43.40;;;;;;6401688;27;19919;-53
2023/05/03 00:06:15;;;;;;;0.50;0.50;;;23.00;43.30;;;;;;6401822;27;20401;-51
2023/05/03 00:09:17;;;;;;;0.63;0.63;;;23.10;43.40;;;;;;6401908;27;20053;-55
2023/05/03 00:12:18;;;;;;;0.55;0.50;;;23.20;43.60;;;;;;6401826;27;20099;-53
2023/05/03 00:15:20;;;;;;;;;;;23.10;43.60;;;;;;6401931;27;20042;-53
2023/05/03 00:18:22;;;;;;;0.80;0.60;;;22.90;43.60;;;;;;6401872;27;19995;-53
2023/05/03 00:21:24;;;;;;;0.50;0.50;;;23.00;43.60;;;;;;6401620;27;20050;-53
2023/05/03 00:24:26;;;;;;;0.55;0.55;;;22.90;43.60;;;;;;6401430;27;20042;-52
2023/05/03 00:27:28;;;;;;;0.63;0.60;;;22.90;43.60;;;;;;6401714;27;20056;-53
2023/05/03 00:30:32;;;;;;;0.70;0.63;;;23.00;43.70;;;;;;6383954;27;20050;-54
2023/05/03 00:33:34;;;;;;;0.60;0.60;;;22.90;43.70;;;;;;6401239;27;20042;-54
2023/05/03 00:36:35;;;;;;;0.65;0.55;;;23.10;43.90;;;;;;6383021;27;20103;-51
2023/05/03 00:39:39;;;;;;;0.63;0.52;;;22.90;43.70;;;;;;6401280;27;20126;-52
2023/05/03 00:42:41;;;;;;;0.60;0.60;;;22.80;43.70;;;;;;6401026;27;20039;-52
2023/05/03 00:45:45;;;;;;;0.60;0.60;;;23.00;43.80;;;;;;6400629;27;20438;-51
2023/05/03 00:48:48;;;;;;;0.60;0.60;;;23.00;43.90;;;;;;6401150;27;20058;-53
2023/05/03 00:51:52;;;;;;;0.93;0.75;;;23.10;44.00;;;;;;6400762;27;20074;-53
2023/05/03 00:54:55;;;;;;;0.68;0.60;;;23.10;44.00;;;;;;6401218;27;20379;-53
2023/05/03 00:57:57;;;;;;;0.73;0.68;;;23.00;43.90;;;;;;6400986;27;20039;-53
2023/05/03 01:00:59;;;;;;;0.70;0.70;;;23.00;44.00;;;;;;6400864;27;20039;-54
2023/05/03 01:04:01;;;;;;;0.43;0.43;;;23.00;44.00;;;;;;6401085;27;20070;-53
2023/05/03 01:07:16;;;;;;;0.80;0.60;;;22.90;43.90;;;;;;6401214;27;20141;-52
2023/05/03 01:10:26;;;;;;;1.00;0.70;;;23.00;44.00;;;;;;6400592;27;20050;-51
2023/05/03 01:13:38;;;;;;;0.50;0.35;;;23.00;44.00;;;;;;6380356;27;20050;-52
2023/05/03 01:16:48;;;;;;;0.77;0.63;;;22.90;44.00;;;;;;6400395;27;20042;-50
2023/05/03 01:19:52;;;;;;;0.60;0.60;;;22.80;44.00;;;;;;6400827;27;20050;-52
2023/05/03 01:23:04;;;;;;;0.70;0.70;;;22.90;44.00;;;;;;6400286;27;20068;-52
2023/05/03 01:26:18;;;;;;;0.40;0.40;;;22.90;44.00;;;;;;6366390;27;20035;-52
2023/05/03 01:29:21;;;;;;;0.52;0.52;;;22.90;44.00;;;;;;6382012;27;20051;-49
2023/05/03 01:32:31;;;;;;;0.57;0.43;;;22.80;44.00;;;;;;6400602;27;20047;-52
2023/05/03 01:35:40;;;;;;;0.65;0.60;;;22.90;44.00;;;;;;6400147;27;20050;-52
2023/05/03 01:38:42;;;;;;;0.50;0.45;;;22.90;44.00;;;;;;6382294;27;20486;-51
2023/05/03 01:41:45;;;;;;;0.70;0.50;;;22.70;43.90;;;;;;6400169;27;20038;-48
2023/05/03 01:44:48;;;;;;;0.60;0.60;;;22.80;44.00;;;;;;6400051;27;20042;-50
2023/05/03 01:47:50;;;;;;;0.40;0.40;;;22.90;44.00;;;;;;6399975;27;20051;-50
2023/05/03 01:50:51;;;;;;;0.55;0.50;;;22.90;44.00;;;;;;6400307;27;20401;-50
2023/05/03 01:53:53;;;;;;;0.50;0.50;;;22.80;44.00;;;;;;6400062;27;20043;-51
2023/05/03 01:56:55;;;;;;;;;;;22.80;44.00;;;;;;6399860;27;20049;-52
2023/05/03 01:59:59;;;;;;;0.60;0.52;;;22.90;44.10;;;;;;6363420;27;19919;-51
2023/05/03 02:03:01;;;;;;;0.60;0.50;;;22.70;44.00;;;;;;6399967;27;20059;-52
2023/05/03 02:06:02;;;;;;;0.60;0.60;;;22.80;44.00;;;;;;6399708;27;20039;-49
2023/05/03 02:09:04;;;;;;;0.50;0.50;;;22.80;44.00;;;;;;6400015;27;20053;-52
2023/05/03 02:12:06;;;;;;;;;;;22.60;43.80;;;;;;6400864;27;20034;-53
2023/05/03 02:15:10;;;;;;;0.52;0.45;;;22.90;44.10;;;;;;6399939;27;19926;-51
2023/05/03 02:18:11;;;;;;;1.00;0.50;;;22.80;43.90;;;;;;6399854;27;20482;-50
2023/05/03 02:21:13;;;;;;;;;;;22.70;43.90;;;;;;6399961;27;20043;-50
2023/05/03 02:24:15;;;;;;;0.63;0.60;;;22.70;44.00;;;;;;6400080;27;19941;-51
2023/05/03 02:27:17;;;;;;;0.90;0.68;;;22.80;44.00;;;;;;6399704;27;20050;-51
2023/05/03 02:30:20;;;;;;;0.60;0.60;;;22.60;43.80;;;;;;6399292;27;20379;-51
2023/05/03 02:33:21;;;;;;;0.40;0.40;;;22.60;43.90;;;;;;6399199;27;20501;-52
2023/05/03 02:36:23;;;;;;;0.75;0.60;;;22.50;43.80;;;;;;6399480;27;20039;-50
2023/05/03 02:39:25;;;;;;;0.60;0.60;;;22.70;43.90;;;;;;6399070;27;20498;-51
2023/05/03 02:43:21;;;;;;;0.63;0.60;;;22.60;43.80;;;;;;6399743;27;20501;-52
2023/05/03 02:46:26;;;;;;;0.77;0.70;;;22.70;43.70;;;;;;6398867;27;20528;-51
2023/05/03 02:49:28;;;;;;;0.80;0.70;;;22.70;43.80;;;;;;6399216;27;20175;-51
2023/05/03 02:52:29;;;;;;;1.00;0.82;;;22.40;43.70;;;;;;6346463;27;20042;-49
2023/05/03 02:55:31;;;;;;;0.90;0.80;;;22.70;43.80;;;;;;6398792;27;20121;-51
2023/05/03 02:58:33;;;;;;;0.60;0.60;;;22.40;43.70;;;;;;6398897;27;20035;-51
2023/05/03 03:01:37;;;;;;;0.73;0.60;;;22.60;43.80;;;;;;6398912;27;20130;-51
2023/05/03 03:04:38;;;;;;;1.15;0.75;;;22.70;43.80;;;;;;6398665;27;20030;-52
2023/05/03 03:07:44;;;;;;;0.70;0.70;;;22.70;43.80;;;;;;6399144;27;20084;-51
2023/05/03 03:10:45;;;;;;;0.80;0.60;;;22.40;43.70;;;;;;6398278;27;20192;-51
2023/05/03 03:13:47;;;;;;;0.98;0.88;;;22.50;43.70;;;;;;6398410;27;20123;-51
2023/05/03 03:16:51;;;;;;;0.70;0.70;;;22.50;43.70;;;;;;6398534;27;20043;-49
2023/05/03 03:19:53;;;;;;;1.15;0.77;;;22.60;43.80;;;;;;6372520;28;20062;-50
2023/05/03 03:22:55;;;;;;;;;;;22.60;43.70;;;;;;6373681;27;20042;-51
2023/05/03 03:25:56;;;;;;;;;;;22.60;43.80;;;;;;6374256;27;19919;-51
2023/05/03 03:29:00;;;;;;;1.10;0.80;;;22.40;43.70;;;;;;6372539;27;20051;-52
2023/05/03 03:32:03;;;;;;;0.73;0.60;;;22.40;43.70;;;;;;6372423;28;20043;-51
2023/05/03 03:35:05;;;;;;;0.90;0.70;;;22.60;43.80;;;;;;6372749;27;20043;-51
2023/05/03 03:38:07;;;;;;;0.70;0.70;;;22.40;43.70;;;;;;6372452;28;20144;-51
2023/05/03 03:41:13;;;;;;;0.73;0.70;;;22.40;43.70;;;;;;6372300;27;20054;-47
2023/05/03 03:44:15;;;;;;;1.23;0.90;;;22.40;43.70;;;;;;6372634;27;20111;-52
2023/05/03 03:47:18;;;;;;;0.80;0.80;;;22.30;44.30;;;;;;6372343;28;20100;-50
2023/05/03 03:50:19;;;;;;;0.80;0.80;;;22.30;43.60;;;;;;6372260;28;20146;-52
2023/05/03 03:53:21;;;;;;;;;;;22.50;43.70;;;;;;6372889;28;20039;-52
2023/05/03 03:56:24;;;;;;;0.80;0.73;;;22.60;43.80;;;;;;6372227;28;19923;-51
2023/05/03 03:59:27;;;;;;;1.00;0.90;;;22.50;43.70;;;;;;6335921;28;20093;-52
2023/05/03 04:02:29;;;;;;;1.33;1.00;;;22.50;43.70;;;;;;6372373;27;20047;-50
2023/05/03 04:05:31;;;;;;;0.80;0.70;;;22.40;44.30;;;;;;6371792;27;20039;-52
2023/05/03 04:08:33;;;;;;;0.85;0.75;;;22.40;43.70;;;;;;6372706;28;20050;-51
2023/05/03 04:11:34;;;;;;;;;;;22.30;43.60;;;;;;6372141;27;20066;-51
2023/05/03 04:14:37;;;;;;;0.82;0.70;;;22.20;43.70;;;;;;6371785;27;19920;-51
2023/05/03 04:17:40;;;;;;;;;;;22.20;43.60;;;;;;6372124;27;20070;-50
2023/05/03 04:20:43;;;;;;;1.17;1.08;;;22.40;43.70;;;;;;6372532;27;19920;-51
2023/05/03 04:23:45;;;;;;;1.10;0.90;;;22.40;43.70;;;;;;6375016;27;20039;-51
2023/05/03 04:26:50;;;;;;;0.85;0.80;;;22.10;43.60;;;;;;6376022;27;20391;-49
2023/05/03 04:29:59;;;;;;;1.05;0.95;;;22.20;43.60;;;;;;6375873;28;20126;-49
2023/05/03 04:33:03;;;;;;;1.20;0.90;;;22.40;43.80;;;;;;6376391;27;20479;-50
2023/05/03 04:36:09;;;;;;;1.00;0.90;;;22.10;43.60;;;;;;6375960;27;20567;-51
2023/05/03 04:39:14;;;;;;;1.08;0.90;;;22.40;43.70;;;;;;6375682;28;20508;-51
2023/05/03 04:42:21;;;;;;;1.13;0.85;;;22.20;43.50;;;;;;6358553;27;20093;-51
2023/05/03 04:45:23;;;;;;;1.08;0.90;;;22.20;43.60;;;;;;6375571;28;20039;-52
2023/05/03 04:48:28;;;;;;;0.98;0.88;;;22.40;43.70;;;;;;6375559;27;20039;-50
2023/05/03 04:51:30;;;;;;;1.25;1.13;;;22.30;43.50;;;;;;6374129;27;20050;-52
2023/05/03 04:54:34;;;;;;;1.00;0.88;;;22.20;43.50;;;;;;6375107;27;20047;-50
2023/05/03 04:57:36;;;;;;;0.82;0.82;;;22.40;43.60;;;;;;6375477;27;20054;-51
2023/05/03 05:00:41;;;;;;;1.00;0.85;;;22.40;43.60;;;;;;6375307;27;20047;-50
2023/05/03 05:03:50;;;;;;;1.20;0.98;;;22.30;43.50;;;;;;6375167;27;20054;-52
2023/05/03 05:06:56;;;;;;;1.40;1.10;;;22.10;43.40;;;;;;6376381;27;20054;-50
2023/05/03 05:10:04;;;;;;;1.88;1.58;;;22.40;43.50;;;;;;6375401;27;20065;-51
2023/05/03 05:13:06;;;;;;;1.90;1.70;;;22.20;43.40;;;;;;6375058;27;20039;-51
2023/05/03 05:16:09;;;;;;;1.42;1.23;;;22.10;43.30;;;;;;6375238;27;20039;-52
2023/05/03 05:19:14;;;;;;;1.73;1.58;;;22.30;43.40;;;;;;6357253;27;20054;-47
2023/05/03 05:22:19;;;;;;;2.40;1.95;;;22.10;43.30;;;;;;6374924;28;20537;-50
2023/05/03 05:25:26;;;;;;;1.67;1.30;;;22.10;43.30;;;;;;6325833;28;20050;-51
2023/05/03 05:28:28;;;;;;;1.40;1.30;;;22.10;43.20;;;;;;6374968;27;20131;-52
2023/05/03 05:31:30;;;;;;;1.30;1.20;;;22.30;43.30;;;;;;6374089;27;20058;-50
2023/05/03 05:34:34;;;;;;;2.38;1.55;;;22.30;43.30;;;;;;6374931;27;20095;-50
2023/05/03 05:37:48;;;;;;;1.65;1.13;;;22.10;43.10;;;;;;6374773;27;20043;-52
2023/05/03 05:40:54;;;;;;;1.52;1.30;;;22.20;43.10;;;;;;6374605;28;20529;-49
2023/05/03 05:43:58;;;;;;;1.50;1.30;;;22.00;43.00;;;;;;6374606;28;20047;-52
2023/05/03 05:47:00;;;;;;;1.30;1.20;;;22.00;43.00;;;;;;6356513;28;20047;-49
2023/05/03 05:50:04;;;;;;;1.63;1.40;;;22.30;43.10;;;;;;6374345;27;20051;-49
2023/05/03 05:53:22;;;;;;;1.33;1.23;;;22.00;42.80;;;;;;6374098;27;20047;-49
2023/05/03 05:56:31;;;;;;;1.40;1.10;;;22.10;42.90;;;;;;6374326;28;20047;-51
2023/05/03 05:59:33;;;;;;;1.20;1.10;;;22.30;43.00;;;;;;6373958;27;20529;-50
2023/05/03 06:02:36;;;;;;;1.10;1.00;;;22.30;43.00;;;;;;6373810;27;20049;-56
2023/05/03 06:05:39;;;;;;;1.33;1.10;;;22.20;42.90;;;;;;6374219;27;20044;-50
2023/05/03 06:08:43;;;;;;;1.30;1.10;;;22.20;42.90;;;;;;6373811;27;20072;-51
2023/05/03 06:11:44;;;;;;;1.10;0.95;;;22.00;42.70;;;;;;6373667;27;20487;-51
2023/05/03 06:14:47;;;;;;;1.55;1.02;;;22.20;42.80;;;;;;6374123;28;20073;-51
2023/05/03 06:18:05;;;;;;;1.10;1.00;;;22.10;42.80;;;;;;6373756;28;20100;-51
2023/05/03 06:21:08;;;;;;;1.17;1.00;;;22.30;42.80;;;;;;6373506;27;20047;-52
2023/05/03 06:24:10;;;;;;;1.00;0.90;;;22.10;42.80;;;;;;6373620;27;20043;-52
2023/05/03 06:27:16;;;;;;;1.10;1.00;;;22.10;42.70;;;;;;6373469;28;20559;-47
2023/05/03 06:30:22;;;;;;;1.00;1.00;;;22.00;42.60;;;;;;6373654;27;20047;-51
2023/05/03 06:33:25;;;;;;;1.40;1.20;;;22.20;42.70;;;;;;6373056;28;20110;-52
2023/05/03 06:36:29;;;;;;;0.80;0.80;;;22.30;42.70;;;;;;6373577;27;20489;-50
2023/05/03 06:39:31;;;;;;;1.08;0.80;;;22.30;42.70;;;;;;6373049;27;20051;-51
2023/05/03 06:42:39;;;;;;;1.05;0.95;;;22.10;42.70;;;;;;6372182;27;20050;-50
2023/05/03 06:45:50;;;;;;;1.55;0.82;;;22.40;42.70;;;;;;6355738;28;20043;-50
2023/05/03 06:48:56;;;;;;;0.77;0.77;;;22.30;42.70;;;;;;6354115;27;20397;-51
2023/05/03 06:52:00;;;;;;;1.10;1.00;;;22.00;42.60;;;;;;6372607;28;20071;-52
2023/05/03 06:55:01;;;;;;;0.85;0.80;;;22.00;42.60;;;;;;6354746;28;20451;-49
2023/05/03 06:58:10;;;;;;;0.93;0.70;;;22.30;42.70;;;;;;6372295;27;20125;-51
2023/05/03 07:01:14;;;;;;;0.93;0.80;;;22.30;42.70;;;;;;6323044;28;20051;-52
2023/05/03 07:04:16;;;;;;;0.80;0.80;;;22.30;42.70;;;;;;6372674;27;20091;-51
2023/05/03 07:07:18;;;;;;;0.95;0.80;;;22.10;42.60;;;;;;6372497;28;20467;-52
2023/05/03 07:10:20;;;;;;;0.85;0.82;;;22.00;43.10;;;;;;6372218;28;20047;-53
2023/05/03 07:13:21;;;;;;;1.85;1.02;;;22.40;42.60;;;;;;6372543;27;20425;-52
2023/05/03 07:16:24;;;;;;;;;;;22.10;42.40;;;;;;6373029;27;20046;-52
2023/05/03 07:19:25;;;;;;;0.90;0.90;;;22.30;42.60;;;;;;6371858;27;19925;-53
2023/05/03 07:22:27;;;;;;;;;;;22.30;42.50;;;;;;6372937;27;20036;-53
2023/05/03 07:25:32;;;;;;;1.33;0.80;;;22.50;42.60;;;;;;6372225;27;19926;-48
2023/05/03 07:28:33;;;;;;;0.70;0.70;;;22.30;42.40;;;;;;6372194;27;20039;-52
2023/05/03 07:31:35;;;;;;;0.70;0.70;;;22.40;42.50;;;;;;6372048;27;20521;-52
2023/05/03 07:34:37;;;;;;;0.82;0.80;;;22.50;42.40;;;;;;6372210;27;20079;-52
2023/05/03 07:37:39;;;;;;;1.67;0.80;;;22.40;42.20;;;;;;6371886;28;20043;-52
2023/05/03 07:40:41;;;;;;;0.70;0.70;;;22.20;42.00;;;;;;6372544;27;20050;-51
2023/05/03 07:43:42;;;;;;;;;;;22.50;42.00;;;;;;6372656;27;20042;-50
2023/05/03 07:46:44;;;;;;;0.65;0.60;;;22.50;42.10;;;;;;6371667;28;19919;-50
2023/05/03 07:49:47;;;;;;;0.50;0.50;;;22.50;42.00;;;;;;6371948;27;20043;-51
2023/05/03 07:52:50;;;;;;;0.82;0.60;;;22.50;41.90;;;;;;6371740;27;20074;-53
2023/05/03 07:55:54;;;;;;;0.65;0.50;;;22.50;41.90;;;;;;6374070;27;20051;-51
2023/05/03 07:58:59;;;;;;;0.50;0.50;;;22.40;42.30;;;;;;6375727;27;20058;-50
2023/05/03 08:02:10;;;;;;;0.70;0.60;;;22.60;41.70;;;;;;6376417;27;20031;-52
2023/05/03 08:05:13;;;;;;;0.73;0.68;;;22.70;41.70;;;;;;6376235;27;20043;-49
2023/05/03 08:08:15;;;;;;;0.50;0.50;;;22.80;41.60;;;;;;6375966;27;20050;-52
2023/05/03 08:11:20;;;;;;;1.15;0.52;;;23.00;41.70;;;;;;6376193;27;20035;-51
2023/05/03 08:14:21;;;;;;;0.60;0.60;;;22.50;41.30;;;;;;6375979;27;20390;-52
2023/05/03 08:17:26;;;;;;;0.80;0.60;;;22.80;41.40;;;;;;6323245;28;20482;-49
2023/05/03 08:20:29;;;;;;;0.73;0.73;;;22.80;41.40;;;;;;6376632;27;20046;-49
2023/05/03 08:23:31;;;;;;;0.50;0.50;;;22.70;41.30;;;;;;6375898;27;20054;-49
2023/05/03 08:26:34;;;;;;;0.50;0.50;;;22.90;41.30;;;;;;6375447;28;20099;-52
2023/05/03 08:29:36;;;;;;;0.55;0.52;;;22.90;41.30;;;;;;6375868;27;20043;-51
2023/05/03 08:32:38;;;;;;;0.60;0.60;;;22.90;41.20;;;;;;6375670;27;20042;-49
2023/05/03 08:35:39;;;;;;;0.50;0.50;;;23.00;41.20;;;;;;6375279;28;20039;-51
2023/05/03 08:38:41;;;;;;;0.50;0.47;;;22.90;41.10;;;;;;6375613;27;20521;-53
2023/05/03 08:41:43;;;;;;;0.57;0.50;;;23.00;41.10;;;;;;6375115;28;20403;-54
2023/05/03 08:44:47;;;;;;;0.50;0.50;;;22.80;40.90;;;;;;6375159;27;20410;-52
2023/05/03 08:47:53;;;;;;;0.68;0.40;;;23.00;40.90;;;;;;6375627;27;20532;-53
2023/05/03 08:50:57;;;;;;;0.50;0.50;;;23.00;40.70;;;;;;6375218;27;20043;-51
2023/05/03 08:53:59;;;;;;;1.70;0.80;;;23.00;40.70;;;;;;6375010;28;20442;-53
2023/05/03 08:57:01;;;;;;;0.60;0.50;;;23.00;40.60;;;;;;6375616;27;20372;-49
2023/05/03 09:00:07;;;;;;;1.85;0.70;;;23.00;40.50;;;;;;6375273;27;20100;-53
2023/05/03 09:03:08;;;;;;;0.47;0.47;;;22.90;40.40;;;;;;6340990;28;20047;-50
2023/05/03 09:06:19;;;;;;;0.30;0.30;;;23.10;40.40;;;;;;6374557;27;20138;-53
2023/05/03 09:09:31;;;;;;;0.40;0.40;;;23.20;40.40;;;;;;6374855;27;20047;-53
2023/05/03 09:12:33;;;;;;;;;;;23.10;40.30;;;;;;6374990;27;20490;-54
2023/05/03 09:15:35;;;;;;;0.50;0.40;;;23.20;40.40;;;;;;6373344;28;19926;-53
2023/05/03 09:18:37;;;;;;;0.55;0.55;;;23.20;40.50;;;;;;6375303;27;20035;-54
2023/05/03 09:21:40;;;;;;;0.50;0.40;;;23.20;40.30;;;;;;6374831;27;20047;-53
2023/05/03 09:24:51;;;;;;;0.40;0.40;;;23.10;40.20;;;;;;6356089;28;20039;-54
2023/05/03 09:28:01;;;;;;;0.40;0.40;;;23.30;40.20;;;;;;6356340;28;20039;-56
2023/05/03 09:31:05;;;;;;;0.40;0.30;;;23.30;40.10;;;;;;6374575;27;20066;-56
2023/05/03 09:34:21;;;;;;;0.55;0.40;;;23.30;40.10;;;;;;6356362;28;20050;-55
2023/05/03 09:37:37;;;;;;;0.90;0.80;;;23.40;40.00;;;;;;6356397;27;20043;-55
2023/05/03 09:40:47;;;;;;;0.82;0.60;;;23.30;39.80;;;;;;6340007;28;20050;-56
2023/05/03 09:43:50;;;;;;;0.85;0.75;;;23.40;39.80;;;;;;6356822;28;20043;-56
2023/05/03 09:47:06;;;;;;;0.68;0.50;;;23.40;39.70;;;;;;6354511;28;20055;-52
2023/05/03 09:50:08;;;;;;;0.52;0.50;;;23.30;39.60;;;;;;6358094;28;20054;-53
2023/05/03 09:53:10;;;;;;;0.70;0.50;;;23.30;39.60;;;;;;6372193;27;20039;-53
2023/05/03 09:56:12;;;;;;;0.50;0.50;;;23.40;39.60;;;;;;6356875;28;20195;-52
2023/05/03 09:59:14;;;;;;;1.75;0.57;;;23.40;39.60;;;;;;6374562;27;20039;-53
2023/05/03 10:02:16;;;;;;;0.93;0.73;;;23.40;39.50;;;;;;6373583;27;20039;-51
2023/05/03 10:05:20;;;;;;;1.48;0.50;;;23.50;39.50;;;;;;6373660;27;20555;-52
2023/05/03 10:08:28;;;;;;;0.60;0.60;;;23.50;39.40;;;;;;6355839;28;20103;-53
2023/05/03 10:11:33;;;;;;;0.50;0.50;;;23.50;39.30;;;;;;6374054;27;20039;-53
2023/05/03 10:14:35;;;;;;;0.40;0.40;;;23.60;39.20;;;;;;6374334;28;20467;-51
2023/05/03 10:17:38;;;;;;;0.60;0.40;;;23.50;39.00;;;;;;6373603;27;20043;-53
2023/05/03 10:20:49;;;;;;;0.40;0.40;;;23.60;39.00;;;;;;6372839;27;20047;-52
2023/05/03 10:24:08;;;;;;;0.80;0.50;;;23.60;38.90;;;;;;6373192;28;20548;-52
2023/05/03 10:27:11;;;;;;;0.82;0.57;;;23.60;38.80;;;;;;6358019;28;20509;-51
2023/05/03 10:30:28;;;;;;;0.40;0.40;;;23.40;38.70;;;;;;6371252;28;20043;-53
2023/05/03 10:33:32;;;;;;;1.02;0.60;;;23.60;38.60;;;;;;6372756;27;20047;-53
2023/05/03 10:36:39;;;;;;;0.50;0.45;;;23.50;38.50;;;;;;6370984;28;20452;-53
2023/05/03 10:39:53;;;;;;;0.68;0.52;;;23.70;38.50;;;;;;6354294;28;20494;-51
2023/05/03 10:42:55;;;;;;;0.43;0.43;;;23.50;38.30;;;;;;6373570;27;20054;-53
2023/05/03 10:45:57;;;;;;;0.63;0.50;;;23.60;38.20;;;;;;6373257;27;20039;-52
2023/05/03 10:49:14;;;;;;;0.60;0.50;;;23.70;38.10;;;;;;6372936;27;20493;-52
2023/05/03 10:52:41;;;;;;;0.40;0.40;;;23.80;38.00;;;;;;6354214;28;20129;-52
2023/05/03 10:56:01;;;;;;;0.63;0.43;;;23.70;37.90;;;;;;6372057;28;20084;-53
2023/05/03 10:59:06;;;;;;;0.50;0.50;;;23.80;37.90;;;;;;6372637;27;20043;-53
2023/05/03 11:02:10;;;;;;;0.30;0.30;;;23.80;37.90;;;;;;6372252;28;20043;-52
2023/05/03 11:05:14;;;;;;;0.70;0.50;;;23.90;37.80;;;;;;6372731;27;20123;-52
2023/05/03 11:08:17;;;;;;;0.75;0.50;;;23.90;37.80;;;;;;6372555;27;20036;-53
2023/05/03 11:11:21;;;;;;;0.50;0.50;;;23.80;37.70;;;;;;6372779;28;20043;-51
2023/05/03 11:14:23;;;;;;;0.40;0.30;;;23.90;37.80;;;;;;6354452;27;20386;-53
2023/05/03 11:17:24;;;;;;;0.40;0.40;;;23.90;37.70;;;;;;6372390;28;20444;-53
2023/05/03 11:20:26;;;;;;;0.50;0.50;;;24.00;37.70;;;;;;6372528;27;20051;-51
2023/05/03 11:23:28;;;;;;;0.60;0.60;;;23.90;37.60;;;;;;6372417;27;20047;-53
2023/05/03 11:26:35;;;;;;;0.40;0.40;;;23.90;37.60;;;;;;6372556;27;20039;-52
2023/05/03 11:29:38;;;;;;;0.45;0.45;;;24.00;37.50;;;;;;6372191;27;20497;-51
2023/05/03 11:32:40;;;;;;;0.40;0.32;;;24.00;37.50;;;;;;6372389;27;20067;-53
2023/05/03 11:35:42;;;;;;;0.30;0.30;;;24.00;37.50;;;;;;6372070;27;20051;-51
2023/05/03 11:38:45;;;;;;;0.70;0.50;;;24.00;37.50;;;;;;6372225;27;20501;-51
2023/05/03 11:42:03;;;;;;;0.40;0.35;;;24.10;37.70;;;;;;6353732;27;20043;-51
2023/05/03 11:45:06;;;;;;;0.45;0.40;;;24.10;37.70;;;;;;6371795;28;20043;-51
2023/05/03 11:48:09;;;;;;;1.00;0.70;;;24.00;37.70;;;;;;6369673;27;20036;-53
2023/05/03 11:51:12;;;;;;;1.25;0.85;;;24.10;37.80;;;;;;6371615;27;20115;-53
2023/05/03 11:54:14;;;;;;;1.08;0.70;;;24.20;37.90;;;;;;6371901;27;20059;-53
2023/05/03 11:57:21;;;;;;;0.77;0.60;;;24.20;37.90;;;;;;6372225;28;20055;-52
2023/05/03 12:00:25;;;;;;;1.52;0.73;;;24.30;37.90;;;;;;6372023;27;20047;-49
2023/05/03 12:03:28;;;;;;;0.80;0.70;;;24.20;37.80;;;;;;6372258;27;20059;-51
2023/05/03 12:06:35;;;;;;;1.13;0.60;;;24.50;38.10;;;;;;6371455;28;20039;-52
2023/05/03 12:09:45;;;;;;;1.33;0.80;;;24.30;38.00;;;;;;6371869;28;20048;-49
2023/05/03 12:13:03;;;;;;;1.52;0.60;;;24.40;38.00;;;;;;6371692;28;20092;-48
2023/05/03 12:16:09;;;;;;;0.82;0.60;;;24.50;38.30;;;;;;6371471;27;20039;-52
2023/05/03 12:19:24;;;;;;;1.08;0.73;;;24.40;38.10;;;;;;6354525;28;20444;-49
2023/05/03 12:22:27;;;;;;;1.53;0.80;;;24.50;38.00;;;;;;6353107;27;20048;-53
2023/05/03 12:25:33;;;;;;;0.80;0.80;;;24.50;37.90;;;;;;6371708;28;20042;-52
2023/05/03 12:28:35;;;;;;;0.77;0.65;;;24.60;37.70;;;;;;6353182;28;20061;-52
2023/05/03 12:31:38;;;;;;;1.60;0.73;;;24.60;37.70;;;;;;6371543;28;20070;-49
2023/05/03 12:34:41;;;;;;;1.10;0.63;;;24.60;37.70;;;;;;6370679;28;20040;-50
2023/05/03 12:37:43;;;;;;;1.27;1.00;;;24.60;37.60;;;;;;6371543;27;20035;-51
2023/05/03 12:40:45;;;;;;;0.77;0.70;;;24.60;37.50;;;;;;6371008;27;20099;-52
2023/05/03 12:43:48;;;;;;;2.05;1.02;;;24.70;37.60;;;;;;6376919;27;20063;-54
2023/05/03 12:46:54;;;;;;;0.88;0.70;;;24.70;37.60;;;;;;6375484;27;20115;-51
2023/05/03 12:49:55;;;;;;;2.25;1.20;;;24.70;37.60;;;;;;6375562;28;20081;-53
2023/05/03 12:53:01;;;;;;;1.73;1.30;;;24.70;37.50;;;;;;6374902;27;20039;-53
2023/05/03 12:56:06;;;;;;;2.50;0.70;;;24.70;37.50;;;;;;6375235;27;20043;-53
2023/05/03 12:59:08;;;;;;;2.15;0.80;;;24.70;37.50;;;;;;6374349;27;20129;-52
2023/05/03 13:02:13;;;;;;;1.20;0.82;;;24.70;37.50;;;;;;6374487;27;20039;-53
2023/05/03 13:05:18;;;;;;;1.20;1.10;;;24.70;37.50;;;;;;6374641;27;20094;-53
2023/05/03 13:08:35;;;;;;;1.20;1.02;;;24.60;37.60;;;;;;6374956;27;20406;-52
2023/05/03 13:11:38;;;;;;;1.02;0.65;;;24.70;37.60;;;;;;6375093;27;20035;-53
2023/05/03 13:14:41;;;;;;;1.00;0.77;;;24.70;37.40;;;;;;6375029;27;20406;-53
2023/05/03 13:17:43;;;;;;;1.40;0.75;;;24.70;37.40;;;;;;6374507;27;20387;-52
2023/05/03 13:20:49;;;;;;;0.93;0.68;;;24.70;37.30;;;;;;6374478;27;20047;-53
2023/05/03 13:23:50;;;;;;;2.25;1.02;;;24.70;37.30;;;;;;6374439;27;20046;-53
2023/05/03 13:26:52;;;;;;;1.10;0.80;;;24.70;37.30;;;;;;6374831;27;20498;-52
2023/05/03 13:29:54;;;;;;;2.10;0.85;;;24.70;37.30;;;;;;6374124;27;20069;-55
2023/05/03 13:32:56;;;;;;;1.83;1.20;;;24.80;37.30;;;;;;6322048;28;20117;-54
2023/05/03 13:35:58;;;;;;;2.28;1.23;;;24.90;37.20;;;;;;6374672;27;20110;-52
2023/05/03 13:39:01;;;;;;;1.73;0.80;;;24.80;37.00;;;;;;6374185;27;20070;-51
2023/05/03 13:42:03;;;;;;;2.60;0.90;;;25.00;37.00;;;;;;6373856;27;20047;-52
2023/05/03 13:45:05;;;;;;;1.00;0.90;;;24.90;36.90;;;;;;6374434;27;20043;-53
2023/05/03 13:48:07;;;;;;;1.95;1.17;;;24.90;36.90;;;;;;6374046;27;20042;-54
2023/05/03 13:51:20;;;;;;;1.52;0.93;;;;;;;;;;6373983;27;20054;-53
2023/05/03 13:54:21;;;;;;;1.38;1.00;;;24.90;58.60;;;;;;6373920;27;20534;-53
2023/05/03 13:57:23;;;;;;;2.67;1.20;;;;;;;;;;6374100;28;20077;-53
2023/05/03 14:00:25;;;;;;;4.13;1.80;;;;;;;;;;6373383;27;20413;-53
2023/05/03 14:03:28;;;;;;;6.22;1.92;;;;;;;;;;6373949;27;20043;-54
2023/05/03 14:06:30;;;;;;;5.45;2.17;;;;;;;;;;6373820;28;20040;-53
2023/05/03 14:09:38;;;;;;;5.75;2.38;;;;;;;;;;6373657;27;20037;-56
2023/05/03 14:12:40;;;;;;;4.15;2.20;;;25.10;65.60;;;;;;6373642;28;20046;-56
2023/05/03 14:15:44;;;;;;;4.20;1.77;;;25.10;61.30;;;;;;6373688;27;20039;-56
2023/05/03 14:18:48;;;;;;;3.88;1.85;;;25.00;64.30;;;;;;6355273;27;20035;-55
2023/05/03 14:21:52;;;;;;;3.28;1.40;;;24.90;60.50;;;;;;6373236;28;20054;-56
2023/05/03 14:24:54;;;;;;;3.80;1.35;;;25.00;59.00;;;;;;6373561;27;20444;-55
2023/05/03 14:27:56;;;;;;;3.30;1.48;;;24.90;58.20;;;;;;6373507;28;20084;-54
2023/05/03 14:30:57;;;;;;;1.95;1.13;;;25.00;57.90;;;;;;6373142;27;20092;-55
2023/05/03 14:34:02;;;;;;;4.13;1.33;;;24.90;58.80;;;;;;6355223;28;20066;-55
2023/05/03 14:37:03;;;;;;;1.70;0.90;;;25.30;59.50;;;;;;6372972;27;20482;-56
2023/05/03 14:40:06;;;;;;;2.65;1.00;;;25.00;59.80;;;;;;6372828;28;20043;-55
2023/05/03 14:43:09;;;;;;;2.63;1.35;;;25.10;60.80;;;;;;6373230;28;20039;-54
2023/05/03 14:46:13;;;;;;;2.15;0.98;;;25.10;58.70;;;;;;6372729;27;20035;-57
2023/05/03 14:49:18;;;;;;;1.10;0.50;;;25.10;59.50;;;;;;6372983;27;20043;-55
2023/05/03 14:52:19;;;;;;;1.35;0.90;;;25.20;59.80;;;;;;6373301;27;20112;-54
2023/05/03 14:55:21;;;;;;;0.93;0.65;;;25.30;58.40;;;;;;6372948;27;20088;-55
2023/05/03 14:58:24;;;;;;;1.30;0.88;;;25.10;58.80;;;;;;6372947;27;20055;-56
2023/05/03 15:01:25;;;;;;;1.33;0.65;;;25.30;59.90;;;;;;6373040;27;20043;-55
2023/05/03 15:14:22;;;;;;;1.90;1.05;;;25.40;58.30;;;;;;6372950;27;20417;-56
2023/05/03 15:17:25;;;;;;;1.45;0.82;;;25.20;62.50;;;;;;6372536;27;20047;-55
2023/05/03 15:20:27;;;;;;;2.83;0.90;;;25.20;63.60;;;;;;6354747;28;20047;-55
2023/05/03 15:23:31;;;;;;;1.00;0.88;;;25.20;61.20;;;;;;6372660;27;20035;-55
2023/05/03 15:26:33;;;;;;;1.00;0.90;;;25.30;59.40;;;;;;6372504;28;20051;-55
2023/05/03 15:29:36;;;;;;;1.08;0.90;;;25.20;61.30;;;;;;6372138;27;20047;-57
2023/05/03 15:32:39;;;;;;;0.88;0.80;;;25.30;62.90;;;;;;6372711;28;20375;-55
2023/05/03 15:35:41;;;;;;;1.45;0.60;;;25.30;60.70;;;;;;6372520;27;20475;-56
2023/05/03 15:38:43;;;;;;;0.90;0.60;;;25.40;62.50;;;;;;6372216;27;20039;-57
2023/05/03 15:41:44;;;;;;;1.27;0.47;;;25.30;55.10;;;;;;6372387;27;20043;-57
2023/05/03 15:44:48;;;;;;;0.55;0.50;;;25.30;55.10;;;;;;6372164;27;20441;-56
2023/05/03 15:47:49;;;;;;;1.95;0.40;;;25.10;54.90;;;;;;6372529;27;20118;-56
2023/05/03 15:50:51;;;;;;;0.80;0.60;;;25.30;55.30;;;;;;6372557;27;20632;-56
2023/05/03 15:53:52;;;;;;;0.60;0.38;;;25.20;55.10;;;;;;6371917;27;20035;-56
2023/05/03 15:56:55;;;;;;;1.15;0.50;;;;;;;;;;6371882;28;20076;-57
2023/05/03 15:59:57;;;;;;;1.55;0.50;;;25.10;37.30;;;;;;6371944;27;20046;-56
2023/05/03 16:02:58;;;;;;;0.40;0.30;;;25.20;39.00;;;;;;6372040;27;20039;-56
2023/05/03 16:06:00;;;;;;;0.60;0.40;;;25.20;38.90;;;;;;6371872;28;20099;-56
2023/05/03 16:09:02;;;;;;;2.35;0.60;;;24.90;38.60;;;;;;6372219;27;20502;-55
2023/05/03 16:12:03;;;;;;;0.73;0.60;;;25.00;38.90;;;;;;6372193;28;20051;-54
2023/05/03 16:15:07;;;;;;;0.70;0.60;;;25.00;38.80;;;;;;6371781;27;20050;-54